createdAt,value
2022-11-16T00:01:12.895Z,8.55
2022-11-16T00:03:40.114Z,8.58
2022-11-16T00:06:08.087Z,8.63
2022-11-16T00:08:37.371Z,8.63
2022-11-16T00:11:18.981Z,8.65
2022-11-16T00:13:45.914Z,8.66
2022-11-16T00:16:16.449Z,8.68
2022-11-16T00:18:44.054Z,8.69
2022-11-16T00:21:11.160Z,8.71
2022-11-16T00:23:38.855Z,8.69
2022-11-16T00:26:12.372Z,8.68
2022-11-16T00:28:38.919Z,8.66
2022-11-16T00:31:07.344Z,8.62
2022-11-16T00:33:34.485Z,8.59
2022-11-16T00:36:02.285Z,8.54
2022-11-16T00:38:29.021Z,8.51
2022-11-16T00:40:55.747Z,8.50
2022-11-16T00:43:22.796Z,8.46
2022-11-16T00:45:49.359Z,8.45
2022-11-16T00:48:15.971Z,8.45
2022-11-16T00:50:45.171Z,8.44
2022-11-16T00:53:17.069Z,8.43
2022-11-16T00:55:45.065Z,8.41
2022-11-16T00:58:12.867Z,8.40
2022-11-16T01:00:40.646Z,8.39
2022-11-16T01:03:07.233Z,8.40
2022-11-16T01:05:33.955Z,8.38
2022-11-16T01:08:00.563Z,8.35
2022-11-16T01:10:28.156Z,8.32
2022-11-16T01:12:55.192Z,8.30
2022-11-16T01:15:24.203Z,8.31
2022-11-16T01:17:52.146Z,8.30
2022-11-16T01:20:21.013Z,8.27
2022-11-16T01:22:48.018Z,8.26
2022-11-16T01:25:15.843Z,8.25
2022-11-16T01:27:43.293Z,8.24
2022-11-16T01:30:13.369Z,8.26
2022-11-16T01:32:39.924Z,8.27
2022-11-16T01:35:07.609Z,8.29
2022-11-16T01:37:34.510Z,8.24
2022-11-16T01:40:01.117Z,8.14
2022-11-16T01:42:30.611Z,8.08
2022-11-16T01:45:04.581Z,8.04
2022-11-16T01:47:31.430Z,8.03
2022-11-16T01:50:18.952Z,8.01
2022-11-16T01:52:57.277Z,8.03
2022-11-16T01:55:25.442Z,8.06
2022-11-16T01:57:52.163Z,8.08
2022-11-16T02:00:19.456Z,8.09
2022-11-16T02:02:46.046Z,8.12
2022-11-16T02:09:38.403Z,8.11
2022-11-16T02:12:39.145Z,8.00
2022-11-16T02:15:21.230Z,7.86
2022-11-16T02:17:59.857Z,7.78
2022-11-16T02:20:52.302Z,7.74
2022-11-16T02:23:43.740Z,7.68
2022-11-16T02:26:22.324Z,7.62
2022-11-16T02:29:16.338Z,7.58
2022-11-16T02:31:51.632Z,7.57
2022-11-16T02:34:20.239Z,7.56
2022-11-16T02:36:51.606Z,7.52
2022-11-16T02:39:23.145Z,7.48
2022-11-16T02:41:53.098Z,7.43
2022-11-16T02:44:29.474Z,7.43
2022-11-16T02:46:59.932Z,7.44
2022-11-16T02:49:28.894Z,7.41
2022-11-16T02:51:56.534Z,7.42
2022-11-16T02:54:24.949Z,7.43
2022-11-16T02:57:36.149Z,7.45
2022-11-16T03:00:05.824Z,7.41
2022-11-16T03:02:36.273Z,7.41
2022-11-16T03:05:09.634Z,7.40
2022-11-16T03:07:46.522Z,7.38
2022-11-16T03:10:35.396Z,7.33
2022-11-16T03:13:03.698Z,7.29
2022-11-16T03:15:30.525Z,7.22
2022-11-16T03:17:59.723Z,7.13
2022-11-16T03:20:29.623Z,7.12
2022-11-16T03:23:02.837Z,7.08
2022-11-16T03:25:36.165Z,7.01
2022-11-16T03:28:06.146Z,6.89
2022-11-16T03:30:38.638Z,6.82
2022-11-16T03:33:43.097Z,6.65
2022-11-16T03:36:17.976Z,6.57
2022-11-16T03:38:47.424Z,6.56
2022-11-16T03:41:14.946Z,6.60
2022-11-16T03:43:44.766Z,6.58
2022-11-16T03:46:12.273Z,6.50
2022-11-16T03:48:40.077Z,6.43
2022-11-16T03:51:09.634Z,6.30
2022-11-16T03:53:36.886Z,6.19
2022-11-16T03:56:04.043Z,6.17
2022-11-16T03:58:30.960Z,6.06
2022-11-16T04:00:57.916Z,5.93
2022-11-16T04:03:24.555Z,5.85
2022-11-16T04:06:09.918Z,5.84
2022-11-16T04:08:55.070Z,5.78
2022-11-16T04:11:40.892Z,5.78
2022-11-16T04:14:33.297Z,5.80
2022-11-16T04:17:18.460Z,5.94
2022-11-16T04:20:03.653Z,5.96
2022-11-16T04:22:55.896Z,5.96
2022-11-16T04:25:27.143Z,5.96
2022-11-16T04:28:13.257Z,6.00
2022-11-16T04:31:06.515Z,6.00
2022-11-16T04:33:51.687Z,6.04
2022-11-16T04:36:36.690Z,6.00
2022-11-16T04:39:04.313Z,5.92
2022-11-16T04:41:50.388Z,5.88
2022-11-16T04:44:17.474Z,5.81
2022-11-16T04:47:02.492Z,5.80
2022-11-16T04:49:29.111Z,5.85
2022-11-16T04:51:56.191Z,5.83
2022-11-16T04:54:22.742Z,5.80
2022-11-16T04:56:49.323Z,5.71
2022-11-16T04:59:15.933Z,5.74
2022-11-16T05:02:01.098Z,5.76
2022-11-16T05:04:27.652Z,5.76
2022-11-16T05:06:54.345Z,5.69
2022-11-16T05:09:20.989Z,5.58
2022-11-16T05:11:47.650Z,5.49
2022-11-16T05:14:14.248Z,5.48
2022-11-16T05:16:40.870Z,5.50
2022-11-16T05:19:26.079Z,5.47
2022-11-16T05:21:52.672Z,5.41
2022-11-16T05:24:34.428Z,5.39
2022-11-16T05:27:07.125Z,5.32
2022-11-16T05:29:34.362Z,5.33
2022-11-16T05:32:01.857Z,5.31
2022-11-16T05:34:29.372Z,5.27
2022-11-16T05:36:56.820Z,5.18
2022-11-16T05:39:24.062Z,5.13
2022-11-16T05:41:51.103Z,5.17
2022-11-16T05:44:17.898Z,5.18
2022-11-16T05:46:45.185Z,5.18
2022-11-16T05:49:13.069Z,5.16
2022-11-16T05:51:41.506Z,5.17
2022-11-16T05:54:08.213Z,5.24
2022-11-16T05:56:35.275Z,5.24
2022-11-16T05:59:02.010Z,5.25
2022-11-16T06:01:28.861Z,5.17
2022-11-16T06:03:55.747Z,5.18
2022-11-16T06:06:22.420Z,5.19
2022-11-16T06:08:48.961Z,5.21
2022-11-16T06:11:15.570Z,5.24
2022-11-16T06:13:42.214Z,5.27
2022-11-16T06:16:09.441Z,5.32
2022-11-16T06:18:40.893Z,5.36
2022-11-16T06:21:08.263Z,5.42
2022-11-16T06:23:35.470Z,5.42
2022-11-16T06:26:02.630Z,5.43
2022-11-16T06:28:29.592Z,5.49
2022-11-16T06:30:56.578Z,5.49
2022-11-16T06:33:23.503Z,5.54
2022-11-16T06:35:50.298Z,5.54
2022-11-16T06:38:20.670Z,5.55
2022-11-16T06:40:56.170Z,5.51
2022-11-16T06:43:23.694Z,5.54
2022-11-16T06:45:52.048Z,5.56
2022-11-16T06:48:19.428Z,5.56
2022-11-16T06:50:48.673Z,5.44
2022-11-16T06:53:15.814Z,5.34
2022-11-16T06:55:42.520Z,5.28
2022-11-16T06:58:09.178Z,5.29
2022-11-16T07:00:36.219Z,5.35
2022-11-16T07:03:03.980Z,5.43
2022-11-16T07:05:31.680Z,5.42
2022-11-16T07:07:58.784Z,5.45
2022-11-16T07:10:25.642Z,5.47
2022-11-16T07:12:52.340Z,5.49
2022-11-16T07:15:20.117Z,5.53
2022-11-16T07:17:47.149Z,5.56
2022-11-16T07:20:13.843Z,5.61
2022-11-16T07:22:40.510Z,5.62
2022-11-16T07:25:07.820Z,5.61
2022-11-16T07:27:34.515Z,5.64
2022-11-16T07:30:02.187Z,5.67
2022-11-16T07:32:31.177Z,5.74
2022-11-16T07:34:59.415Z,5.85
2022-11-16T07:37:26.363Z,5.87
2022-11-16T07:39:53.007Z,5.90
2022-11-16T07:42:19.552Z,5.91
2022-11-16T07:44:46.132Z,5.92
2022-11-16T07:47:12.710Z,5.94
2022-11-16T07:49:39.329Z,5.98
2022-11-16T07:52:08.896Z,5.97
2022-11-16T07:54:35.470Z,5.96
2022-11-16T07:57:02.154Z,5.96
2022-11-16T07:59:28.798Z,5.96
2022-11-16T08:01:59.290Z,6.02
2022-11-16T08:04:26.129Z,6.01
2022-11-16T08:06:52.876Z,6.03
2022-11-16T08:09:19.690Z,6.10
2022-11-16T08:11:47.206Z,6.15
2022-11-16T08:14:14.128Z,6.11
2022-11-16T08:16:40.684Z,6.11
2022-11-16T08:19:07.177Z,6.12
2022-11-16T08:21:33.742Z,6.16
2022-11-16T08:24:00.292Z,6.19
2022-11-16T08:26:27.725Z,6.26
2022-11-16T08:28:56.489Z,6.25
2022-11-16T08:31:26.093Z,6.31
2022-11-16T08:33:52.729Z,6.32
2022-11-16T08:36:20.238Z,6.37
2022-11-16T08:38:50.960Z,6.45
2022-11-16T08:41:18.736Z,6.51
2022-11-16T08:43:47.315Z,6.54
2022-11-16T08:46:14.816Z,6.58
2022-11-16T08:48:41.513Z,6.61
2022-11-16T08:51:19.597Z,6.57
2022-11-16T08:53:48.465Z,6.58
2022-11-16T08:56:17.409Z,6.56
2022-11-16T08:58:44.397Z,6.55
2022-11-16T09:01:14.009Z,6.53
2022-11-16T09:03:41.521Z,6.60
2022-11-16T09:06:09.627Z,6.63
2022-11-16T09:08:37.784Z,6.73
2022-11-16T09:11:09.913Z,6.85
2022-11-16T09:13:36.786Z,7.13
2022-11-16T09:16:03.911Z,7.15
2022-11-16T09:18:31.835Z,7.05
2022-11-16T09:20:59.124Z,7.06
2022-11-16T09:23:26.068Z,7.11
2022-11-16T09:25:54.426Z,7.03
2022-11-16T09:28:22.109Z,7.03
2022-11-16T09:30:50.832Z,7.06
2022-11-16T09:33:18.214Z,7.08
2022-11-16T09:35:44.980Z,7.00
2022-11-16T09:38:15.983Z,6.98
2022-11-16T09:40:47.787Z,7.07
2022-11-16T09:43:25.609Z,7.16
2022-11-16T09:46:13.834Z,7.04
2022-11-16T09:48:41.484Z,7.06
2022-11-16T09:51:12.693Z,6.99
2022-11-16T09:53:44.492Z,6.90
2022-11-16T09:56:22.069Z,6.93
2022-11-16T09:59:07.717Z,6.92
2022-11-16T10:01:38.960Z,6.92
2022-11-16T10:04:13.311Z,7.05
2022-11-16T10:07:04.522Z,7.11
2022-11-16T10:09:31.275Z,7.08
2022-11-16T10:12:09.761Z,7.08
2022-11-16T10:14:47.813Z,7.23
2022-11-16T10:17:33.268Z,7.27
2022-11-16T10:20:30.474Z,7.24
2022-11-16T10:23:10.138Z,7.34
2022-11-16T10:25:51.225Z,7.53
2022-11-16T10:28:27.648Z,7.52
2022-11-16T10:31:15.021Z,7.38
2022-11-16T10:33:46.743Z,7.27
2022-11-16T10:36:15.353Z,7.11
2022-11-16T10:38:44.329Z,7.05
2022-11-16T10:41:25.035Z,7.06
2022-11-16T10:43:51.592Z,7.03
2022-11-16T10:46:24.314Z,7.06
2022-11-16T10:49:15.605Z,7.00
2022-11-16T10:51:43.342Z,7.11
2022-11-16T10:54:14.385Z,7.23
2022-11-16T10:56:45.414Z,7.34
2022-11-16T10:59:21.785Z,7.37
2022-11-16T11:01:50.300Z,7.34
2022-11-16T11:04:31.562Z,7.32
2022-11-16T11:07:00.783Z,7.39
2022-11-16T11:09:38.849Z,7.37
2022-11-16T11:12:33.129Z,7.46
2022-11-16T11:15:26.165Z,7.42
2022-11-16T11:18:11.716Z,7.43
2022-11-16T11:20:44.747Z,7.32
2022-11-16T11:23:17.346Z,7.28
2022-11-16T11:25:54.442Z,7.26
2022-11-16T11:28:28.757Z,7.21
2022-11-16T11:31:04.263Z,7.17
2022-11-16T11:33:37.631Z,7.13
2022-11-16T11:36:18.596Z,7.06
2022-11-16T11:39:04.050Z,7.00
2022-11-16T11:41:37.443Z,6.82
2022-11-16T11:44:25.300Z,6.79
2022-11-16T11:49:52.198Z,6.98
2022-11-16T11:52:33.945Z,7.08
2022-11-16T11:55:02.907Z,7.07
2022-11-16T11:57:33.308Z,7.08
2022-11-16T12:00:03.178Z,7.07
2022-11-16T12:02:54.559Z,7.18
2022-11-16T12:05:57.673Z,7.32
2022-11-16T12:08:41.188Z,7.25
2022-11-16T12:11:22.373Z,7.40
2022-11-16T12:14:13.582Z,7.41
2022-11-16T12:16:40.261Z,7.43
2022-11-16T12:19:21.880Z,7.58
2022-11-16T12:22:06.756Z,7.47
2022-11-16T12:24:45.152Z,7.59
2022-11-16T12:27:14.312Z,7.54
2022-11-16T12:30:09.863Z,7.65
2022-11-16T12:33:11.204Z,7.73
2022-11-16T12:35:46.632Z,8.07
2022-11-16T12:38:33.412Z,7.93
2022-11-16T12:41:12.361Z,7.77
2022-11-16T12:43:57.557Z,7.73
2022-11-16T12:46:35.933Z,7.57
2022-11-16T12:49:35.325Z,7.56
2022-11-16T12:52:13.689Z,7.48
2022-11-16T12:55:29.303Z,7.49
2022-11-16T12:58:10.863Z,7.37
2022-11-16T13:00:54.376Z,7.43
2022-11-16T13:03:28.107Z,7.38
2022-11-16T13:05:57.793Z,7.32
2022-11-16T13:08:49.556Z,7.40
2022-11-16T13:11:35.584Z,7.50
2022-11-16T13:14:07.765Z,7.60
2022-11-16T13:16:34.376Z,7.61
2022-11-16T13:19:05.786Z,7.66
2022-11-16T13:22:03.583Z,7.74
2022-11-16T13:24:39.012Z,7.95
2022-11-16T13:27:41.493Z,8.04
2022-11-16T13:30:22.141Z,7.93
2022-11-16T13:33:50.274Z,7.97
2022-11-16T13:36:32.734Z,7.82
2022-11-16T13:39:00.521Z,7.83
2022-11-16T13:41:31.112Z,7.78
2022-11-16T13:43:58.400Z,7.73
2022-11-16T13:46:55.439Z,7.69
2022-11-16T13:49:48.937Z,7.60
2022-11-16T13:52:26.383Z,7.53
2022-11-16T13:54:57.258Z,7.48
2022-11-16T13:57:32.421Z,7.59
2022-11-16T14:00:01.815Z,7.60
2022-11-16T14:02:32.752Z,7.71
2022-11-16T14:05:02.912Z,7.72
2022-11-16T14:07:33.971Z,7.81
2022-11-16T14:10:01.243Z,7.89
2022-11-16T14:12:54.398Z,8.01
2022-11-16T14:15:25.825Z,7.89
2022-11-16T14:18:07.406Z,7.86
2022-11-16T14:20:51.062Z,7.75
2022-11-16T14:23:23.418Z,7.66
2022-11-16T14:26:20.402Z,7.57
2022-11-16T14:29:11.393Z,7.48
2022-11-16T14:31:59.176Z,7.48
2022-11-16T14:34:32.002Z,7.45
2022-11-16T14:37:00.406Z,7.45
2022-11-16T14:39:40.054Z,7.44
2022-11-16T14:42:25.938Z,7.42
2022-11-16T14:45:01.645Z,7.43
2022-11-16T14:47:32.580Z,7.40
2022-11-16T14:49:59.158Z,7.37
2022-11-16T14:52:40.305Z,7.34
2022-11-16T14:55:09.683Z,7.34
2022-11-16T14:57:36.507Z,7.28
2022-11-16T15:00:19.509Z,7.26
2022-11-16T15:02:57.673Z,7.23
2022-11-16T15:05:32.799Z,7.22
2022-11-16T15:08:00.616Z,7.17
2022-11-16T15:10:29.197Z,7.14
2022-11-16T15:12:57.425Z,7.09
2022-11-16T15:15:26.851Z,7.11
2022-11-16T15:18:11.414Z,7.09
2022-11-16T15:20:47.945Z,7.09
2022-11-16T15:23:15.501Z,7.12
2022-11-16T15:25:55.513Z,7.10
2022-11-16T15:28:21.983Z,7.10
2022-11-16T15:31:13.974Z,7.05
2022-11-16T15:33:45.392Z,7.06
2022-11-16T15:36:40.839Z,7.05
2022-11-16T15:39:14.274Z,7.00
2022-11-16T15:41:41.853Z,6.98
2022-11-16T15:44:15.647Z,7.00
2022-11-16T15:46:45.977Z,7.01
2022-11-16T15:49:35.577Z,7.02
2022-11-16T15:52:02.946Z,7.03
2022-11-16T15:54:53.798Z,7.04
2022-11-16T15:57:22.207Z,7.06
2022-11-16T15:59:54.801Z,7.08
2022-11-16T16:02:24.214Z,7.09
2022-11-16T16:04:50.919Z,7.08
2022-11-16T16:07:47.688Z,7.07
2022-11-16T16:10:24.637Z,7.08
2022-11-16T16:12:57.254Z,7.07
2022-11-16T16:15:36.780Z,7.07
2022-11-16T16:18:12.375Z,7.06
2022-11-16T16:20:38.975Z,7.03
2022-11-16T16:23:12.862Z,7.03
2022-11-16T16:25:39.435Z,7.00
2022-11-16T16:28:06.067Z,6.98
2022-11-16T16:30:34.735Z,6.93
2022-11-16T16:33:02.264Z,6.87
2022-11-16T16:35:29.087Z,6.87
2022-11-16T16:38:00.986Z,6.91
2022-11-16T16:40:28.540Z,6.97
2022-11-16T16:42:56.594Z,7.00
2022-11-16T16:45:41.398Z,7.03
2022-11-16T16:48:12.553Z,7.06
2022-11-16T16:50:39.726Z,7.08
2022-11-16T16:53:06.867Z,7.08
2022-11-16T16:55:37.434Z,7.08
2022-11-16T16:58:06.094Z,7.09
2022-11-16T17:00:33.151Z,7.09
2022-11-16T17:02:59.727Z,7.10
2022-11-16T17:05:26.460Z,7.11
2022-11-16T17:07:56.555Z,7.13
2022-11-16T17:10:23.204Z,7.12
2022-11-16T17:12:53.450Z,7.12
2022-11-16T17:15:20.117Z,7.13
2022-11-16T17:17:47.167Z,7.11
2022-11-16T17:20:14.259Z,7.10
2022-11-16T17:22:41.943Z,7.12
2022-11-16T17:25:09.554Z,7.13
2022-11-16T17:27:36.108Z,7.12
2022-11-16T17:30:03.516Z,7.12
2022-11-16T17:32:30.250Z,7.14
2022-11-16T17:34:56.757Z,7.14
2022-11-16T17:37:23.461Z,7.13
2022-11-16T17:39:49.974Z,7.11
2022-11-16T17:42:16.543Z,7.11
2022-11-16T17:44:43.170Z,7.12
2022-11-16T17:47:09.753Z,7.12
2022-11-16T17:49:36.513Z,7.10
2022-11-16T17:52:04.571Z,7.10
2022-11-16T17:54:31.150Z,7.11
2022-11-16T17:56:57.734Z,7.11
2022-11-16T17:59:29.232Z,7.11
2022-11-16T18:01:58.003Z,7.12
2022-11-16T18:04:24.879Z,7.11
2022-11-16T18:06:51.495Z,7.10
2022-11-16T18:09:19.583Z,7.09
2022-11-16T18:11:47.259Z,7.10
2022-11-16T18:14:13.906Z,7.06
2022-11-16T18:16:44.347Z,7.07
2022-11-16T18:19:16.249Z,7.07
2022-11-16T18:21:43.132Z,7.08
2022-11-16T18:24:10.217Z,7.08
2022-11-16T18:26:36.936Z,7.07
2022-11-16T18:29:04.194Z,7.08
2022-11-16T18:31:32.991Z,7.05
2022-11-16T18:34:01.192Z,7.08
2022-11-16T18:36:27.837Z,7.06
2022-11-16T18:38:54.525Z,7.06
2022-11-16T18:41:24.004Z,7.06
2022-11-16T18:43:57.764Z,7.06
2022-11-16T18:46:26.841Z,7.06
2022-11-16T18:48:53.710Z,7.06
2022-11-16T18:51:21.633Z,7.05
2022-11-16T18:53:48.800Z,7.03
2022-11-16T18:56:16.131Z,7.03
2022-11-16T18:58:50.460Z,7.02
2022-11-16T19:01:19.610Z,7.02
2022-11-16T19:03:46.596Z,7.02
2022-11-16T19:06:14.951Z,7.05
2022-11-16T19:08:43.649Z,7.04
2022-11-16T19:11:14.902Z,7.05
2022-11-16T19:13:43.755Z,7.05
2022-11-16T19:16:12.009Z,7.06
2022-11-16T19:18:38.965Z,7.04
2022-11-16T19:21:10.538Z,7.03
2022-11-16T19:23:42.863Z,7.03
2022-11-16T19:26:10.408Z,7.03
2022-11-16T19:28:41.370Z,7.00
2022-11-16T19:31:17.907Z,7.01
2022-11-16T19:33:45.561Z,7.02
2022-11-16T19:36:13.710Z,7.01
2022-11-16T19:38:40.645Z,7.01
2022-11-16T19:41:08.086Z,7.01
2022-11-16T19:43:35.620Z,7.01
2022-11-16T19:46:07.914Z,7.00
2022-11-16T19:48:35.018Z,6.97
2022-11-16T19:51:06.521Z,6.98
2022-11-16T19:53:33.788Z,6.98
2022-11-16T19:56:01.064Z,6.97
2022-11-16T19:58:28.114Z,6.95
2022-11-16T20:01:05.306Z,6.95
2022-11-16T20:03:33.104Z,6.95
2022-11-16T20:06:20.993Z,6.93
2022-11-16T20:08:52.896Z,6.95
2022-11-16T20:11:24.757Z,6.94
2022-11-16T20:13:52.874Z,6.93
2022-11-16T20:16:22.769Z,6.94
2022-11-16T20:18:50.325Z,6.93
2022-11-16T20:21:28.143Z,6.95
2022-11-16T20:23:59.104Z,6.94
2022-11-16T20:26:30.805Z,6.93
2022-11-16T20:28:58.065Z,6.94
2022-11-16T20:31:27.455Z,6.93
2022-11-16T20:33:55.449Z,6.94
2022-11-16T20:36:24.049Z,6.95
2022-11-16T20:38:51.574Z,6.93
2022-11-16T20:41:21.505Z,6.90
2022-11-16T20:43:51.305Z,6.90
2022-11-16T20:46:18.882Z,6.91
2022-11-16T20:48:45.794Z,6.89
2022-11-16T20:51:14.897Z,6.93
2022-11-16T20:53:41.450Z,6.92
2022-11-16T20:56:10.573Z,6.90
2022-11-16T20:58:37.724Z,6.92
2022-11-16T21:01:07.000Z,6.91
2022-11-16T21:03:34.645Z,6.92
2022-11-16T21:06:01.479Z,6.92
2022-11-16T21:08:29.779Z,6.89
2022-11-16T21:10:56.742Z,6.90
2022-11-16T21:13:42.428Z,6.91
2022-11-16T21:16:11.462Z,6.89
2022-11-16T21:18:39.436Z,6.87
2022-11-16T21:21:08.555Z,6.85
2022-11-16T21:23:36.476Z,6.87
2022-11-16T21:26:05.590Z,6.85
2022-11-16T21:28:33.210Z,6.84
2022-11-16T21:31:02.001Z,6.86
2022-11-16T21:33:29.073Z,6.83
2022-11-16T21:35:56.022Z,6.87
2022-11-16T21:38:25.386Z,6.83
2022-11-16T21:40:51.907Z,6.84
2022-11-16T21:43:19.795Z,6.82
2022-11-16T21:45:48.343Z,6.82
2022-11-16T21:48:15.270Z,6.80
2022-11-16T21:50:41.883Z,6.80
2022-11-16T21:53:09.217Z,6.79
2022-11-16T21:55:35.830Z,6.77
2022-11-16T21:58:05.975Z,6.79
2022-11-16T22:00:32.616Z,6.80
2022-11-16T22:02:59.204Z,6.83
2022-11-16T22:05:45.965Z,6.83
2022-11-16T22:08:12.573Z,6.84
2022-11-16T22:10:39.545Z,6.84
2022-11-16T22:13:06.177Z,6.85
2022-11-16T22:15:32.714Z,6.86
2022-11-16T22:17:59.271Z,6.82
2022-11-16T22:20:25.868Z,6.79
2022-11-16T22:22:52.627Z,6.80
2022-11-16T22:25:19.452Z,6.79
2022-11-16T22:28:18.676Z,6.82
2022-11-16T22:30:35.849Z,6.82
2022-11-16T22:33:02.444Z,6.82
2022-11-16T22:35:29.009Z,6.82
2022-11-16T22:37:56.125Z,6.83
2022-11-16T22:40:22.658Z,6.86
2022-11-16T22:42:49.247Z,6.84
2022-11-16T22:45:16.185Z,6.85
2022-11-16T22:47:42.858Z,6.84
2022-11-16T22:50:09.542Z,6.86
2022-11-16T22:52:36.289Z,6.83
2022-11-16T22:55:02.838Z,6.83
2022-11-16T22:57:29.507Z,6.84
2022-11-16T22:59:56.070Z,6.84
2022-11-16T23:02:22.588Z,6.86
2022-11-16T23:04:49.118Z,6.83
2022-11-16T23:07:15.741Z,6.79
2022-11-16T23:09:42.476Z,6.78
2022-11-16T23:12:27.923Z,6.80
2022-11-16T23:15:13.237Z,6.79
2022-11-16T23:17:39.763Z,6.77
2022-11-16T23:20:25.482Z,6.77
2022-11-16T23:23:10.620Z,6.75
2022-11-16T23:25:55.670Z,6.75
2022-11-16T23:28:22.357Z,6.74
2022-11-16T23:30:49.053Z,6.76
2022-11-16T23:33:15.647Z,6.72
2022-11-16T23:35:42.246Z,6.75
2022-11-16T23:38:08.884Z,6.74
2022-11-16T23:40:37.725Z,6.73
2022-11-16T23:43:24.231Z,6.71
2022-11-16T23:45:51.269Z,6.68
2022-11-16T23:48:18.945Z,6.69
2022-11-16T23:50:46.496Z,6.67
2022-11-16T23:53:13.333Z,6.67
2022-11-16T23:55:40.422Z,6.68
2022-11-16T23:58:11.340Z,6.71
